Time;durP1;ratioP1;P1;durP2;ratioP2;P2;SDS_P1;SDS_P2;PMS_P1;PMS_P2;Temp;Humidity;BMP_temperature;BMP_pressure;BME280_temperature;BME280_humidity;BME280_pressure;Samples;Min_cycle;Max_cycle;Signal;HPM_P1;HPM_P2
2024/01/06 00:01:21;;;;;;;1.00;1.00;;;;;;;2.13;96.49;97354.31;4958659;28;20047;-92
2024/01/06 00:03:50;;;;;;;1.00;1.00;;;;;;;2.12;96.81;97346.38;4955988;28;20138;-91
2024/01/06 00:06:16;;;;;;;1.00;1.00;;;;;;;2.17;96.55;97350.09;4966876;28;20051;-94
2024/01/06 00:08:43;;;;;;;1.00;1.00;;;;;;;2.16;96.53;97349.19;4955145;28;20035;-92
2024/01/06 00:11:09;;;;;;;1.10;1.10;;;;;;;2.18;96.73;97357.13;4955316;28;20039;-93
2024/01/06 00:13:36;;;;;;;;;;;;;;;2.12;96.55;97365.69;4951227;28;20085;-92
2024/01/06 00:16:04;;;;;;;0.93;0.93;;;;;;;2.11;96.86;97363.91;4960516;28;19919;-91
2024/01/06 00:18:33;;;;;;;1.00;1.00;;;;;;;2.14;97.09;97364.00;4948944;28;20035;-93
2024/01/06 00:21:00;;;;;;;1.00;1.00;;;;;;;2.18;97.08;97365.03;4953614;28;20039;-93
2024/01/06 00:23:26;;;;;;;1.10;1.10;;;;;;;2.18;96.81;97358.03;4964863;28;20094;-93
2024/01/06 00:25:59;;;;;;;1.00;1.00;;;;;;;2.14;96.80;97357.84;4932563;29;20051;-93
2024/01/06 00:28:35;;;;;;;1.10;1.10;;;;;;;2.14;96.90;97363.09;4956455;28;20259;-92
2024/01/06 00:31:22;;;;;;;1.02;1.02;;;;;;;2.18;97.06;97360.66;4959010;28;20159;-92
2024/01/06 00:33:58;;;;;;;0.90;0.90;;;;;;;2.22;96.97;97370.47;4934134;29;20039;-92
2024/01/06 00:36:25;;;;;;;1.07;1.07;;;;;;;2.20;97.01;97368.59;4950391;28;20031;-94
2024/01/06 00:38:53;;;;;;;1.00;1.00;;;;;;;2.25;97.00;97378.50;4942035;29;20039;-94
2024/01/06 00:41:35;;;;;;;1.00;1.00;;;;;;;2.22;96.93;97377.47;4958808;28;20054;-93
2024/01/06 00:44:45;;;;;;;1.10;1.10;;;;;;;2.26;97.18;97382.91;4952074;28;20043;-93
2024/01/06 00:47:22;;;;;;;1.00;1.00;;;;;;;2.34;96.94;97383.19;4951321;28;20047;-93
2024/01/06 00:50:19;;;;;;;1.10;1.10;;;;;;;2.33;96.79;97383.16;4957265;28;20058;-93
2024/01/06 00:53:34;;;;;;;1.08;1.08;;;;;;;2.35;96.85;97384.09;4956709;28;20042;-94
2024/01/06 00:56:24;;;;;;;1.10;1.10;;;;;;;2.32;97.06;97390.16;4970130;28;20123;-93
2024/01/06 00:59:15;;;;;;;1.00;1.00;;;;;;;2.41;96.96;97387.88;4961265;28;20123;-93
2024/01/06 01:02:09;;;;;;;0.90;0.90;;;;;;;2.51;97.19;97400.56;4955649;28;20056;-94
2024/01/06 01:04:35;;;;;;;0.98;0.98;;;;;;;2.50;97.02;97397.88;4941912;29;20046;-92
2024/01/06 01:07:01;;;;;;;1.02;1.02;;;;;;;2.45;97.36;97394.19;4968369;28;20029;-91
2024/01/06 01:09:56;;;;;;;1.10;1.10;;;;;;;2.39;96.77;97396.53;4950548;28;20035;-93
2024/01/06 01:12:23;;;;;;;1.00;1.00;;;;;;;2.38;96.59;97400.91;4972474;28;20742;-92
2024/01/06 01:14:49;;;;;;;1.00;1.00;;;;;;;2.46;96.39;97403.84;4951039;29;20052;-93
2024/01/06 01:17:15;;;;;;;1.10;1.10;;;;;;;2.41;96.23;97406.31;4936795;28;20075;-93
2024/01/06 01:19:41;;;;;;;1.05;1.05;;;;;;;2.31;96.35;97406.78;5042690;23;20066;-93
2024/01/06 01:22:09;;;;;;;1.10;1.10;;;;;;;2.41;96.01;97411.56;4993908;28;20046;-92
2024/01/06 01:24:35;;;;;;;1.10;1.10;;;;;;;2.43;96.09;97407.25;5013471;28;20039;-92
2024/01/06 01:27:08;;;;;;;1.00;1.00;;;;;;;2.34;95.85;97413.88;4991177;28;20524;-92
2024/01/06 01:29:40;;;;;;;1.10;1.10;;;;;;;2.33;96.05;97422.63;5022952;28;20038;-92
2024/01/06 01:32:07;;;;;;;1.10;1.10;;;;;;;2.37;96.38;97414.03;5018418;28;20026;-92
2024/01/06 01:34:48;;;;;;;0.88;0.88;;;;;;;2.28;96.38;97420.69;5002863;28;20051;-93
2024/01/06 01:37:15;;;;;;;1.00;1.00;;;;;;;2.33;96.63;97423.53;5002070;28;20062;-94
2024/01/06 01:39:41;;;;;;;1.02;1.02;;;;;;;2.35;96.42;97423.56;4979627;28;20575;-91
2024/01/06 01:42:10;;;;;;;1.02;1.02;;;;;;;2.41;96.55;97434.38;4961367;28;20049;-94
2024/01/06 01:44:42;;;;;;;1.00;1.00;;;;;;;2.32;95.96;97424.38;5003598;28;20045;-94
2024/01/06 01:47:09;;;;;;;1.00;1.00;;;;;;;2.31;96.28;97428.72;4971784;28;20042;-92
2024/01/06 01:49:38;;;;;;;1.00;1.00;;;;;;;2.24;96.76;97429.31;5003861;28;20593;-92
2024/01/06 01:52:10;;;;;;;1.10;1.10;;;;;;;2.23;96.56;97442.41;4999650;28;20151;-94
2024/01/06 01:54:37;;;;;;;1.00;1.00;;;;;;;2.23;96.73;97434.53;5005337;28;20054;-92
2024/01/06 01:57:08;;;;;;;;;;;;;;;2.14;96.80;97429.78;4992248;28;20066;-93
2024/01/06 01:59:37;;;;;;;1.10;1.10;;;;;;;2.14;97.25;97435.03;5006140;28;19945;-92
2024/01/06 02:02:06;;;;;;;1.08;1.08;;;;;;;2.16;97.09;97435.13;5002534;28;20480;-91
2024/01/06 02:04:32;;;;;;;1.10;1.10;;;;;;;2.14;97.20;97440.28;5008878;28;20078;-92
2024/01/06 02:06:59;;;;;;;1.02;1.02;;;;;;;2.18;97.61;97428.16;4995359;28;20027;-91
2024/01/06 02:09:32;;;;;;;1.10;1.10;;;;;;;2.10;97.14;97433.13;5012795;28;20011;-92
2024/01/06 02:11:59;;;;;;;1.00;1.00;;;;;;;2.15;97.23;97434.19;5008481;28;20023;-93
2024/01/06 02:14:29;;;;;;;1.08;1.08;;;;;;;2.13;97.35;97440.25;5017239;28;20030;-94
2024/01/06 02:16:58;;;;;;;1.10;1.10;;;;;;;2.16;97.57;97435.13;5002654;28;20070;-92
2024/01/06 02:19:28;;;;;;;1.10;1.10;;;;;;;2.13;97.55;97435.00;4997805;28;20134;-93
2024/01/06 02:21:54;;;;;;;1.10;1.10;;;;;;;2.11;97.54;97444.53;4999515;28;20035;-92
2024/01/06 02:24:24;;;;;;;1.00;1.00;;;;;;;2.16;97.13;97432.50;4991787;28;20042;-93
2024/01/06 02:26:53;;;;;;;1.00;1.00;;;;;;;2.15;97.25;97442.09;5011237;28;20034;-94
2024/01/06 02:29:22;;;;;;;1.08;1.08;;;;;;;2.15;97.53;97438.56;4999979;28;20042;-92
2024/01/06 02:31:49;;;;;;;1.10;1.10;;;;;;;2.16;97.38;97449.16;4999592;28;20046;-92
2024/01/06 02:34:16;;;;;;;1.00;1.00;;;;;;;2.36;96.98;97460.50;5002258;28;20042;-92
2024/01/06 02:36:43;;;;;;;1.10;1.10;;;;;;;2.22;96.77;97459.94;4989263;28;20042;-92
2024/01/06 02:39:09;;;;;;;;;;;;;;;2.30;96.89;97466.41;4997848;28;20051;-93
2024/01/06 02:41:39;;;;;;;1.10;1.10;;;;;;;2.18;96.82;97463.28;5002099;28;19952;-93
2024/01/06 02:44:06;;;;;;;;;;;;;;;2.17;96.92;97469.38;4989988;28;20045;-94
2024/01/06 02:46:34;;;;;;;1.02;1.02;;;;;;;2.06;96.75;97470.69;4989542;28;19926;-93
2024/01/06 02:49:01;;;;;;;1.00;1.00;;;;;;;2.01;97.03;97466.94;4998692;28;20033;-94
2024/01/06 02:51:34;;;;;;;1.00;1.00;;;;;;;2.02;97.02;97464.38;4992131;28;20041;-93
2024/01/06 02:54:08;;;;;;;1.10;1.10;;;;;;;2.01;97.12;97469.56;5006330;28;20022;-93
2024/01/06 02:56:35;;;;;;;1.05;1.05;;;;;;;2.02;97.10;97463.47;5000431;28;20061;-92
2024/01/06 02:59:01;;;;;;;1.00;1.00;;;;;;;1.99;97.11;97469.50;5003863;28;20138;-93
2024/01/06 03:01:29;;;;;;;1.00;1.00;;;;;;;2.04;97.56;97461.81;5003803;28;20037;-92
2024/01/06 03:03:56;;;;;;;1.10;1.10;;;;;;;2.15;96.99;97460.50;4981317;28;20480;-93
2024/01/06 03:06:43;;;;;;;1.00;1.00;;;;;;;2.17;97.14;97466.75;4999163;28;20053;-92
2024/01/06 03:09:13;;;;;;;1.10;1.10;;;;;;;2.21;96.92;97471.31;5012538;28;20091;-91
2024/01/06 03:11:40;;;;;;;1.02;1.02;;;;;;;2.15;96.98;97468.41;4999511;28;20080;-95
2024/01/06 03:14:06;;;;;;;1.00;1.00;;;;;;;2.12;96.71;97472.66;5001451;28;20447;-92
2024/01/06 03:16:33;;;;;;;0.90;0.90;;;;;;;2.09;97.03;97478.66;5001308;28;20077;-93
2024/01/06 03:18:59;;;;;;;0.90;0.90;;;;;;;2.27;96.90;97473.28;4999472;28;20030;-93
2024/01/06 03:21:26;;;;;;;1.00;1.00;;;;;;;2.22;96.37;97473.09;4988385;28;20053;-92
2024/01/06 03:23:52;;;;;;;1.00;1.00;;;;;;;2.12;96.70;97476.19;4999657;28;20041;-92
2024/01/06 03:26:18;;;;;;;1.00;1.00;;;;;;;2.17;96.50;97479.91;4997446;28;20050;-93
2024/01/06 03:28:50;;;;;;;0.98;0.98;;;;;;;2.15;96.53;97484.19;5013820;28;20476;-93
2024/01/06 03:31:16;;;;;;;1.10;1.10;;;;;;;2.21;96.45;97478.31;4993530;28;20049;-93
2024/01/06 03:33:44;;;;;;;1.10;1.10;;;;;;;2.25;96.33;97480.19;4993479;28;20038;-93
2024/01/06 03:36:15;;;;;;;;;;;;;;;2.17;96.27;97472.00;5002253;28;20039;-94
2024/01/06 03:38:45;;;;;;;1.00;1.00;;;;;;;2.18;96.26;97480.78;5013587;28;19917;-94
2024/01/06 03:41:12;;;;;;;1.10;1.10;;;;;;;2.14;96.36;97469.25;4974348;28;20065;-94
2024/01/06 03:43:38;;;;;;;1.10;1.10;;;;;;;2.13;96.25;97466.56;5002716;28;20050;-93
2024/01/06 03:46:05;;;;;;;1.10;1.10;;;;;;;2.04;96.77;97475.84;5002819;28;20640;-93
2024/01/06 03:48:32;;;;;;;1.10;1.10;;;;;;;2.02;96.91;97474.00;5001881;28;20052;-93
2024/01/06 03:51:03;;;;;;;1.00;1.00;;;;;;;1.99;96.93;97473.88;5004883;28;20101;-94
2024/01/06 03:53:34;;;;;;;1.00;1.00;;;;;;;1.98;96.84;97469.44;5008746;28;20077;-93
2024/01/06 03:56:00;;;;;;;1.00;1.00;;;;;;;2.04;96.82;97459.16;5007985;28;20089;-93
2024/01/06 03:58:27;;;;;;;1.00;1.00;;;;;;;2.04;96.67;97464.44;5009275;28;20050;-94
2024/01/06 04:00:53;;;;;;;1.08;1.08;;;;;;;2.07;96.55;97461.94;4993578;28;20070;-94
2024/01/06 04:03:19;;;;;;;1.10;1.10;;;;;;;1.95;96.65;97466.69;5002501;28;20042;-94
2024/01/06 04:05:48;;;;;;;1.10;1.10;;;;;;;1.94;96.68;97467.53;4985619;28;20046;-94
2024/01/06 04:08:13;;;;;;;1.08;1.08;;;;;;;2.07;96.98;97475.09;5015573;28;20062;-94
2024/01/06 04:10:43;;;;;;;1.10;1.10;;;;;;;2.00;96.78;97480.91;4999016;28;20041;-94
2024/01/06 04:13:13;;;;;;;0.95;0.95;;;;;;;1.95;96.60;97485.09;4995332;28;20038;-95
2024/01/06 04:15:42;;;;;;;1.10;1.10;;;;;;;1.82;96.92;97480.13;4991777;28;20034;-94
2024/01/06 04:18:09;;;;;;;0.98;0.98;;;;;;;1.88;97.14;97480.41;4998600;28;20038;-95
2024/01/06 04:20:36;;;;;;;1.10;1.10;;;;;;;1.82;97.12;97482.75;4996643;28;20043;-93
2024/01/06 04:23:07;;;;;;;1.00;1.00;;;;;;;1.79;97.58;97487.06;5002078;28;20029;-96
2024/01/06 04:25:33;;;;;;;0.90;0.90;;;;;;;1.76;97.66;97484.28;5009525;28;20114;-95
2024/01/06 04:27:59;;;;;;;1.10;1.10;;;;;;;1.75;97.90;97479.88;4993284;28;20134;-95
2024/01/06 04:30:26;;;;;;;1.00;1.00;;;;;;;1.72;98.00;97485.00;4998659;28;20027;-94
2024/01/06 04:32:54;;;;;;;1.05;1.05;;;;;;;1.79;98.15;97489.69;5019381;28;20031;-92
2024/01/06 04:35:21;;;;;;;1.00;1.00;;;;;;;1.77;97.82;97488.75;5013705;28;20030;-94
2024/01/06 04:37:47;;;;;;;1.10;1.10;;;;;;;1.84;98.07;97494.25;5009838;28;20034;-94
2024/01/06 04:40:14;;;;;;;1.00;1.00;;;;;;;1.73;97.61;97486.81;4990202;28;20061;-93
2024/01/06 04:42:39;;;;;;;1.10;1.10;;;;;;;1.67;97.74;97490.88;5013185;28;20050;-93
2024/01/06 04:45:29;;;;;;;1.10;1.10;;;;;;;1.57;97.86;97496.59;5009373;28;20026;-92
2024/01/06 04:47:56;;;;;;;1.02;1.02;;;;;;;1.73;98.04;97496.44;5010110;28;20046;-92
2024/01/06 04:50:22;;;;;;;1.00;1.00;;;;;;;1.73;97.92;97494.72;5001637;28;20099;-93
2024/01/06 04:52:50;;;;;;;1.08;1.08;;;;;;;1.83;97.89;97498.63;4993617;28;20067;-93
2024/01/06 04:55:17;;;;;;;1.00;1.00;;;;;;;1.97;97.58;97496.59;5010415;28;20026;-92
2024/01/06 04:57:44;;;;;;;1.00;1.00;;;;;;;1.96;97.35;97505.28;5002465;28;20157;-93
2024/01/06 05:00:12;;;;;;;1.00;1.00;;;;;;;1.96;97.36;97497.41;5008179;28;20026;-93
2024/01/06 05:02:37;;;;;;;0.90;0.90;;;;;;;2.16;97.24;97509.69;4983384;28;20054;-93
2024/01/06 05:05:04;;;;;;;1.00;1.00;;;;;;;2.13;97.24;97501.66;4967714;28;20070;-93
2024/01/06 05:07:33;;;;;;;1.10;1.10;;;;;;;2.16;97.36;97506.16;5000869;28;20061;-93
2024/01/06 05:10:00;;;;;;;1.00;1.00;;;;;;;2.13;96.94;97511.28;5001019;28;20102;-94
2024/01/06 05:12:28;;;;;;;1.10;1.10;;;;;;;2.08;96.69;97513.72;4986338;28;20061;-93
2024/01/06 05:14:55;;;;;;;1.00;1.00;;;;;;;2.09;96.82;97512.88;5019260;28;20046;-92
2024/01/06 05:17:21;;;;;;;1.10;1.10;;;;;;;2.19;96.75;97511.53;4993985;28;20027;-93
2024/01/06 05:19:46;;;;;;;1.10;1.10;;;;;;;2.17;96.57;97511.47;4984572;28;20038;-93
2024/01/06 05:22:12;;;;;;;1.10;1.10;;;;;;;2.38;96.45;97513.19;5009122;28;20058;-93
2024/01/06 05:24:41;;;;;;;1.10;1.10;;;;;;;2.36;96.17;97518.41;5018957;28;20019;-92
2024/01/06 05:27:06;;;;;;;0.85;0.85;;;;;;;2.35;96.17;97520.94;5005420;28;20029;-93
2024/01/06 05:29:33;;;;;;;1.02;1.02;;;;;;;2.42;96.16;97530.91;5021292;28;20030;-92
2024/01/06 05:31:59;;;;;;;1.00;1.00;;;;;;;2.45;96.30;97533.69;5006585;28;20038;-93
2024/01/06 05:34:25;;;;;;;1.10;1.10;;;;;;;2.58;96.44;97539.47;5006597;28;20042;-94
2024/01/06 05:36:51;;;;;;;1.05;1.05;;;;;;;2.68;95.82;97540.75;5022313;28;20053;-93
2024/01/06 05:39:21;;;;;;;0.93;0.93;;;;;;;2.62;96.12;97537.88;4974611;28;20044;-94
2024/01/06 05:41:47;;;;;;;1.00;1.00;;;;;;;2.51;95.98;97533.91;4991259;28;20047;-93
2024/01/06 05:44:14;;;;;;;1.00;1.00;;;;;;;2.71;95.76;97537.34;5005335;28;20046;-93
2024/01/06 05:46:43;;;;;;;1.10;1.10;;;;;;;2.61;95.31;97541.34;4981223;28;20034;-93
2024/01/06 05:49:11;;;;;;;1.00;1.00;;;;;;;2.53;95.77;97542.78;4997691;28;20042;-93
2024/01/06 05:51:44;;;;;;;1.00;1.00;;;;;;;2.62;95.98;97548.41;4998071;28;20034;-93
2024/01/06 05:54:10;;;;;;;1.00;1.00;;;;;;;2.68;95.27;97553.03;4994865;28;20034;-92
2024/01/06 05:56:37;;;;;;;1.00;1.00;;;;;;;2.74;95.48;97558.56;4998364;28;20057;-92
2024/01/06 05:59:04;;;;;;;1.00;1.00;;;;;;;2.74;95.45;97553.28;4994325;28;20043;-93
2024/01/06 06:01:31;;;;;;;1.10;1.10;;;;;;;2.68;95.34;97559.19;4991063;28;20038;-93
2024/01/06 06:03:56;;;;;;;1.00;1.00;;;;;;;2.64;95.01;97562.56;4971051;28;20152;-92
2024/01/06 06:06:22;;;;;;;0.90;0.90;;;;;;;2.72;95.16;97560.22;4990144;28;20038;-93
2024/01/06 06:08:51;;;;;;;;;;;;;;;2.67;95.41;97562.66;4992973;28;20030;-92
2024/01/06 06:11:16;;;;;;;0.90;0.90;;;;;;;2.69;95.49;97571.53;4991463;28;20397;-93
2024/01/06 06:13:42;;;;;;;1.00;1.00;;;;;;;2.68;95.23;97574.09;5009240;28;20053;-91
2024/01/06 06:16:14;;;;;;;0.90;0.90;;;;;;;2.63;95.32;97579.16;4996387;28;20065;-93
2024/01/06 06:18:49;;;;;;;0.95;0.95;;;;;;;2.65;95.48;97579.25;5014246;28;20026;-92
2024/01/06 06:21:20;;;;;;;1.00;1.00;;;;;;;2.65;95.63;97584.50;5014211;28;20031;-93
2024/01/06 06:23:49;;;;;;;0.90;0.90;;;;;;;2.66;95.55;97581.94;4984600;28;20069;-91
2024/01/06 06:26:16;;;;;;;1.10;1.10;;;;;;;2.61;95.15;97586.13;4993234;28;20046;-91
2024/01/06 06:28:41;;;;;;;1.03;1.03;;;;;;;2.54;95.42;97592.88;4975602;28;20038;-94
2024/01/06 06:31:08;;;;;;;1.00;1.00;;;;;;;2.63;95.49;97594.97;4962612;28;20030;-93
2024/01/06 06:33:34;;;;;;;1.00;1.00;;;;;;;2.80;94.99;97590.41;5010348;28;20034;-93
2024/01/06 06:36:01;;;;;;;1.00;1.00;;;;;;;2.93;94.51;97594.44;5012937;28;20045;-93
2024/01/06 06:38:27;;;;;;;1.00;1.00;;;;;;;3.00;93.95;97589.47;4998674;28;20042;-93
2024/01/06 06:40:53;;;;;;;1.00;1.00;;;;;;;3.13;93.07;97593.50;4993529;28;20046;-92
2024/01/06 06:43:22;;;;;;;1.00;1.00;;;;;;;3.00;92.80;97601.75;5001826;28;20039;-93
2024/01/06 06:45:48;;;;;;;1.00;1.00;;;;;;;2.98;92.86;97604.31;5004907;28;20034;-94
2024/01/06 06:48:14;;;;;;;0.98;0.98;;;;;;;2.91;93.07;97604.91;4973443;28;20041;-92
2024/01/06 06:50:41;;;;;;;1.00;1.00;;;;;;;2.84;92.82;97618.66;4988190;28;20038;-92
2024/01/06 06:53:09;;;;;;;1.00;1.00;;;;;;;2.80;92.93;97612.38;5007969;28;20046;-93
2024/01/06 06:55:38;;;;;;;1.00;1.00;;;;;;;2.79;93.09;97615.84;5007422;28;20006;-94
2024/01/06 06:58:09;;;;;;;1.00;1.00;;;;;;;2.77;93.42;97613.97;4996963;28;20049;-94
2024/01/06 07:00:35;;;;;;;0.95;0.95;;;;;;;2.75;93.69;97615.66;5015383;28;20046;-93
2024/01/06 07:03:02;;;;;;;1.00;1.00;;;;;;;2.71;94.00;97617.25;5010549;28;20066;-92
2024/01/06 07:05:28;;;;;;;0.90;0.90;;;;;;;2.72;93.67;97626.94;4992358;28;20036;-94
2024/01/06 07:07:54;;;;;;;0.80;0.80;;;;;;;2.70;93.93;97619.84;4994871;28;20041;-92
2024/01/06 07:10:22;;;;;;;0.90;0.90;;;;;;;2.68;94.21;97621.50;4993155;28;20050;-92
2024/01/06 07:12:50;;;;;;;1.00;1.00;;;;;;;2.73;93.72;97619.94;5007695;28;20041;-92
2024/01/06 07:15:17;;;;;;;1.10;1.10;;;;;;;2.81;94.17;97619.44;4994335;28;20050;-92
2024/01/06 07:17:43;;;;;;;0.90;0.90;;;;;;;2.80;93.76;97617.63;4993554;28;20038;-92
2024/01/06 07:20:31;;;;;;;1.10;1.10;;;;;;;2.81;93.79;97624.69;4976721;28;20058;-91
2024/01/06 07:23:18;;;;;;;1.00;1.00;;;;;;;2.77;93.63;97630.66;4991912;28;20101;-94
2024/01/06 07:25:52;;;;;;;1.10;1.10;;;;;;;2.76;93.49;97638.53;5006858;28;20045;-93
2024/01/06 07:28:18;;;;;;;1.00;1.00;;;;;;;2.77;93.73;97635.03;5003907;28;20118;-93
2024/01/06 07:30:43;;;;;;;1.10;1.10;;;;;;;2.78;93.82;97634.22;4985143;28;20448;-92
2024/01/06 07:33:11;;;;;;;1.10;1.10;;;;;;;2.79;93.94;97641.28;4991091;28;20035;-92
2024/01/06 07:35:43;;;;;;;1.10;1.10;;;;;;;2.80;93.66;97651.88;4982869;28;20096;-93
2024/01/06 07:38:13;;;;;;;1.00;1.00;;;;;;;3.03;93.74;97647.56;5010529;28;20030;-90
2024/01/06 07:40:40;;;;;;;1.02;1.02;;;;;;;2.92;93.34;97651.47;5003689;28;20169;-92
2024/01/06 07:43:06;;;;;;;1.05;1.05;;;;;;;3.03;93.67;97649.31;4998461;28;20070;-92
2024/01/06 07:45:32;;;;;;;0.90;0.90;;;;;;;3.09;93.30;97653.06;4996678;28;20688;-93
2024/01/06 07:47:58;;;;;;;1.10;1.10;;;;;;;3.11;93.17;97646.97;5001361;28;20484;-94
2024/01/06 07:50:26;;;;;;;0.93;0.93;;;;;;;3.14;93.08;97648.00;4999463;28;20034;-93
2024/01/06 07:52:53;;;;;;;1.00;1.00;;;;;;;3.12;92.49;97657.59;4975674;28;20046;-93
2024/01/06 07:55:20;;;;;;;1.10;1.10;;;;;;;3.22;92.22;97651.84;4982816;28;20031;-94
2024/01/06 07:57:47;;;;;;;1.05;1.05;;;;;;;3.39;92.10;97652.50;5013330;28;20396;-94
2024/01/06 08:00:16;;;;;;;1.00;1.00;;;;;;;3.24;92.25;97651.91;4985744;28;20563;-93
2024/01/06 08:02:43;;;;;;;1.10;1.10;;;;;;;3.23;92.22;97652.75;5005731;28;20034;-94
2024/01/06 08:05:37;;;;;;;1.00;1.00;;;;;;;3.30;92.15;97649.50;4999550;28;20080;-96
2024/01/06 08:08:06;;;;;;;1.00;1.00;;;;;;;3.32;92.01;97658.38;4981358;28;20046;-93
2024/01/06 08:10:35;;;;;;;1.00;1.00;;;;;;;3.45;92.01;97657.09;4993266;28;20050;-92
2024/01/06 08:13:02;;;;;;;1.00;1.00;;;;;;;3.47;91.86;97661.63;4995844;28;20031;-93
2024/01/06 08:15:32;;;;;;;1.00;1.00;;;;;;;3.37;91.51;97654.19;5001890;28;20084;-95
2024/01/06 08:17:57;;;;;;;1.00;1.00;;;;;;;3.54;91.07;97649.56;5015498;28;20045;-93
2024/01/06 08:20:44;;;;;;;0.90;0.90;;;;;;;3.55;90.98;97651.38;4978799;28;21734;-93
2024/01/06 08:23:12;;;;;;;1.00;1.00;;;;;;;3.57;90.86;97657.59;4995761;28;20121;-93
2024/01/06 08:25:39;;;;;;;1.00;1.00;;;;;;;3.70;90.10;97654.59;4977535;28;20034;-93
2024/01/06 08:28:05;;;;;;;1.00;1.00;;;;;;;3.83;89.43;97653.31;5016775;28;20034;-92
2024/01/06 08:30:32;;;;;;;1.00;1.00;;;;;;;3.86;89.66;97656.97;4983854;28;20038;-94
2024/01/06 08:32:59;;;;;;;1.00;1.00;;;;;;;3.97;89.01;97664.38;4995495;28;20050;-92
2024/01/06 08:35:26;;;;;;;1.00;1.00;;;;;;;4.08;88.53;97663.06;5002822;28;20039;-93
2024/01/06 08:37:51;;;;;;;0.90;0.90;;;;;;;4.02;88.70;97669.00;4995050;28;20046;-93
2024/01/06 08:40:18;;;;;;;0.88;0.88;;;;;;;4.08;88.83;97663.06;4994252;28;20030;-94
2024/01/06 08:42:44;;;;;;;1.00;1.00;;;;;;;4.17;88.62;97668.69;5013435;28;20396;-95
2024/01/06 08:45:13;;;;;;;0.88;0.88;;;;;;;4.26;87.97;97669.00;4995974;28;20034;-95
2024/01/06 08:47:42;;;;;;;0.90;0.90;;;;;;;4.34;87.84;97670.19;4998546;28;20046;-95
2024/01/06 08:50:09;;;;;;;0.80;0.80;;;;;;;4.43;87.32;97672.25;4996801;28;20042;-94
2024/01/06 08:53:12;;;;;;;0.90;0.90;;;;;;;4.43;86.88;97677.53;4978374;28;20042;-94
2024/01/06 08:55:57;;;;;;;0.90;0.90;;;;;;;4.46;86.97;97677.66;5002480;28;20061;-94
2024/01/06 08:58:37;;;;;;;1.00;1.00;;;;;;;4.46;86.64;97679.41;5008477;28;20053;-95
2024/01/06 09:01:06;;;;;;;0.80;0.80;;;;;;;4.50;86.70;97683.94;4987592;28;20031;-94
2024/01/06 09:03:32;;;;;;;0.90;0.90;;;;;;;4.49;86.56;97683.03;4993368;28;20045;-96
2024/01/06 09:06:05;;;;;;;1.00;1.00;;;;;;;4.60;86.74;97689.63;4975863;28;20034;-94
2024/01/06 09:08:46;;;;;;;1.00;1.00;;;;;;;4.45;86.79;97691.69;4991039;28;20405;-95
2024/01/06 09:11:18;;;;;;;0.80;0.80;;;;;;;4.54;87.26;97694.66;4991091;28;20477;-96
2024/01/06 09:13:45;;;;;;;0.90;0.90;;;;;;;4.50;86.59;97695.41;4987676;28;20034;-94
2024/01/06 09:16:14;;;;;;;0.90;0.90;;;;;;;4.45;87.40;97690.78;4993052;28;20489;-94
2024/01/06 09:18:41;;;;;;;0.80;0.80;;;;;;;4.62;86.83;97698.50;4999743;28;20052;-94
2024/01/06 09:21:08;;;;;;;0.80;0.80;;;;;;;4.81;86.03;97691.22;5001176;28;20031;-93
2024/01/06 09:29:04;;;;;;;0.80;0.80;;;;;;;4.66;85.19;97714.47;5621762;23;20137;-94
2024/01/06 09:31:35;;;;;;;0.90;0.90;;;;;;;4.87;83.91;97705.53;5007670;28;20062;-94
2024/01/06 09:34:02;;;;;;;0.80;0.80;;;;;;;4.92;83.38;97703.03;5000035;28;20069;-93
2024/01/06 09:36:31;;;;;;;0.85;0.85;;;;;;;4.95;82.68;97703.16;4990486;28;20484;-93
2024/01/06 09:38:57;;;;;;;0.80;0.80;;;;;;;5.00;82.15;97712.16;5000323;28;20042;-93
2024/01/06 09:41:24;;;;;;;0.98;0.98;;;;;;;5.07;81.73;97718.53;4991034;28;20503;-94
2024/01/06 09:43:51;;;;;;;0.90;0.90;;;;;;;5.13;81.06;97724.03;5007160;28;20128;-94
2024/01/06 09:46:35;;;;;;;0.90;0.90;;;;;;;5.15;79.99;97722.34;4998167;28;20039;-95
2024/01/06 09:49:15;;;;;;;0.90;0.90;;;;;;;5.00;81.16;97725.34;4986108;28;20054;-96
2024/01/06 09:51:42;;;;;;;0.82;0.82;;;;;;;4.94;82.57;97740.13;4988797;28;20088;-95
2024/01/06 09:54:13;;;;;;;0.90;0.90;;;;;;;5.04;81.74;97723.72;4970514;28;20061;-93
2024/01/06 09:56:40;;;;;;;0.90;0.90;;;;;;;4.97;80.77;97730.53;4978728;28;20038;-94
2024/01/06 09:59:27;;;;;;;;;;;;;;;4.89;81.21;97745.25;4995181;28;20039;-95
2024/01/06 10:01:53;;;;;;;0.90;0.90;;;;;;;4.70;82.16;97730.47;4978993;28;19932;-95
2024/01/06 10:04:21;;;;;;;1.00;1.00;;;;;;;4.94;81.58;97729.56;4988344;28;20046;-96
2024/01/06 10:06:47;;;;;;;1.00;1.00;;;;;;;5.15;80.21;97735.56;4978840;28;20206;-94
2024/01/06 10:09:13;;;;;;;1.00;1.00;;;;;;;5.45;80.61;97737.44;4997254;28;20653;-94
2024/01/06 10:11:41;;;;;;;1.00;1.00;;;;;;;5.55;79.53;97732.47;4993108;28;20037;-95
2024/01/06 10:14:07;;;;;;;0.90;0.90;;;;;;;5.52;79.85;97739.44;4995549;28;20042;-94
2024/01/06 10:16:39;;;;;;;0.90;0.90;;;;;;;5.60;79.62;97724.69;4980711;28;20034;-93
2024/01/06 10:19:08;;;;;;;1.00;1.00;;;;;;;5.71;79.26;97733.00;4996908;28;20034;-94
2024/01/06 10:21:37;;;;;;;0.90;0.90;;;;;;;5.95;78.54;97730.25;5010172;28;20089;-95
2024/01/06 10:24:09;;;;;;;0.90;0.90;;;;;;;5.74;79.51;97736.63;4992213;28;20081;-93
2024/01/06 10:26:35;;;;;;;0.90;0.90;;;;;;;5.51;79.99;97729.69;4979501;28;20431;-95
2024/01/06 10:29:02;;;;;;;0.80;0.80;;;;;;;5.33;81.37;97730.91;4972776;28;20108;-93
2024/01/06 10:31:29;;;;;;;0.90;0.90;;;;;;;5.13;83.00;97745.19;4991128;28;20017;-93
2024/01/06 10:33:55;;;;;;;1.00;1.00;;;;;;;5.10;83.06;97748.63;5000594;28;20039;-92
2024/01/06 10:36:23;;;;;;;0.90;0.90;;;;;;;5.27;82.04;97743.00;5001829;28;20018;-94
2024/01/06 10:46:52;;;;;;;0.95;0.95;;;;;;;5.12;83.90;97730.16;4985352;28;20110;-95
2024/01/06 10:49:24;;;;;;;1.00;1.00;;;;;;;4.87;84.96;97736.34;4979758;28;20100;-94
2024/01/06 10:51:55;;;;;;;0.90;0.90;;;;;;;4.91;84.07;97726.78;4976344;28;20409;-95
2024/01/06 10:54:24;;;;;;;0.90;0.90;;;;;;;4.69;85.13;97744.50;4965207;28;20042;-92
2024/01/06 10:56:52;;;;;;;0.90;0.90;;;;;;;4.73;85.20;97732.31;4975594;28;20074;-93
2024/01/06 10:59:24;;;;;;;0.90;0.90;;;;;;;4.66;86.69;97733.84;4967842;28;20042;-94
2024/01/06 11:01:54;;;;;;;1.00;1.00;;;;;;;4.82;85.89;97730.88;5001275;23;20081;-96
2024/01/06 11:04:22;;;;;;;0.98;0.98;;;;;;;4.86;85.62;97731.91;4984585;28;20113;-95
2024/01/06 11:06:48;;;;;;;0.90;0.90;;;;;;;4.78;85.98;97730.72;4973596;28;20062;-94
2024/01/06 11:09:26;;;;;;;0.90;0.90;;;;;;;4.77;86.19;97727.19;4950939;28;20054;-95
2024/01/06 11:11:54;;;;;;;1.00;1.00;;;;;;;4.74;86.54;97727.06;4986119;28;20034;-93
2024/01/06 11:14:34;;;;;;;0.90;0.90;;;;;;;4.79;86.36;97725.53;4982437;28;20783;-96
2024/01/06 11:17:00;;;;;;;0.90;0.90;;;;;;;4.79;87.16;97725.53;4974761;28;20088;-94
2024/01/06 11:19:43;;;;;;;0.90;0.90;;;;;;;4.86;86.79;97729.25;4996176;28;20082;-94
2024/01/06 11:22:23;;;;;;;0.90;0.90;;;;;;;4.91;86.49;97718.84;5011769;28;20037;-94
2024/01/06 11:24:52;;;;;;;1.00;1.00;;;;;;;4.86;86.68;97722.22;4996855;28;20046;-93
2024/01/06 11:27:30;;;;;;;0.90;0.90;;;;;;;4.84;86.45;97723.94;5012799;28;20015;-93
2024/01/06 11:30:06;;;;;;;0.90;0.90;;;;;;;4.85;86.79;97720.44;4991385;28;20030;-95
2024/01/06 11:32:41;;;;;;;0.90;0.90;;;;;;;4.85;86.32;97722.19;4988260;28;20665;-94
2024/01/06 11:35:15;;;;;;;0.90;0.90;;;;;;;4.86;86.56;97722.22;4994946;28;20038;-95
2024/01/06 11:37:45;;;;;;;0.90;0.90;;;;;;;4.96;87.06;97714.63;4990978;28;20054;-94
2024/01/06 11:40:28;;;;;;;1.00;1.00;;;;;;;4.97;86.83;97713.78;4991203;28;20046;-95
2024/01/06 11:43:09;;;;;;;0.90;0.90;;;;;;;5.10;85.94;97716.00;4981691;28;20039;-94
2024/01/06 11:45:38;;;;;;;1.00;1.00;;;;;;;5.06;85.99;97708.81;4977577;28;20039;-95
2024/01/06 11:48:06;;;;;;;1.00;1.00;;;;;;;4.96;86.83;97702.31;4987987;28;20054;-94
2024/01/06 11:50:35;;;;;;;1.00;1.00;;;;;;;4.98;86.59;97697.97;4988075;28;20046;-95
2024/01/06 11:53:10;;;;;;;0.98;0.98;;;;;;;5.19;85.61;97703.09;4968703;28;20063;-95
2024/01/06 11:55:42;;;;;;;0.93;0.93;;;;;;;5.08;84.49;97701.84;4992425;28;20034;-94
2024/01/06 11:58:12;;;;;;;0.90;0.90;;;;;;;5.06;85.65;97695.59;4989341;28;20043;-93
2024/01/06 12:00:41;;;;;;;0.80;0.80;;;;;;;5.18;84.79;97698.66;4989398;28;20046;-95
2024/01/06 12:03:10;;;;;;;0.90;0.90;;;;;;;5.19;84.86;97688.97;4989010;28;20026;-94
2024/01/06 12:05:38;;;;;;;0.90;0.90;;;;;;;5.05;85.61;97692.03;4988189;28;20131;-94
2024/01/06 12:08:07;;;;;;;1.00;1.00;;;;;;;5.10;86.24;97700.13;4995994;28;20053;-94
2024/01/06 12:10:34;;;;;;;0.90;0.90;;;;;;;4.98;85.78;97689.13;5000587;28;20031;-94